Time;durP1;ratioP1;P1;durP2;ratioP2;P2;SDS_P1;SDS_P2;PMS_P1;PMS_P2;Temp;Humidity;BMP_temperature;BMP_pressure;BME280_temperature;BME280_humidity;BME280_pressure;Samples;Min_cycle;Max_cycle;Signal;HPM_P1;HPM_P2
2022/01/18 00:00:18;;;;;;;22.33;3.95;;;;;;;2.84;100.00;103944.75;5024353;28;20113;-75
2022/01/18 00:02:43;;;;;;;30.33;6.00;;;;;;;2.80;100.00;103945.19;5023350;28;20036;-75
2022/01/18 00:05:14;;;;;;;32.33;4.72;;;;;;;2.78;100.00;103947.66;5021017;28;20468;-75
2022/01/18 00:07:41;;;;;;;21.83;4.07;;;;;;;2.77;100.00;103963.09;5028137;28;20120;-75
2022/01/18 00:10:07;;;;;;;31.88;5.50;;;;;;;2.73;100.00;103954.09;5020603;28;20072;-75
2022/01/18 00:18:07;;;;;;;40.03;5.68;;;;;;;2.77;100.00;103950.06;5024781;28;20033;-75
2022/01/18 00:23:13;;;;;;;34.25;5.07;;;;;;;2.79;100.00;103959.88;5017397;28;20481;-76
2022/01/18 00:25:42;;;;;;;37.70;5.88;;;;;;;2.75;100.00;103967.22;5029196;28;20060;-76
2022/01/18 00:28:08;;;;;;;32.05;5.43;;;;;;;2.73;100.00;103973.94;5025960;28;20038;-75
2022/01/18 00:33:14;;;;;;;25.05;4.43;;;;;;;2.66;100.00;103977.66;5027812;28;20060;-76
2022/01/18 00:35:42;;;;;;;27.58;5.85;;;;;;;2.65;100.00;103971.50;5016968;28;20065;-75
2022/01/18 00:38:29;;;;;;;57.20;6.00;;;;;;;2.65;100.00;103976.72;5022012;28;20017;-75
2022/01/18 00:40:53;;;;;;;28.70;5.30;;;;;;;2.64;100.00;103967.06;5019541;28;20050;-75
2022/01/18 00:43:19;;;;;;;31.95;5.55;;;;;;;2.67;100.00;103972.59;5025303;28;20080;-76
2022/01/18 00:45:44;;;;;;;29.75;5.60;;;;;;;2.72;100.00;103978.25;5026633;28;20041;-76
2022/01/18 00:48:09;;;;;;;30.92;4.93;;;;;;;2.75;100.00;103972.44;5024507;28;20033;-76
2022/01/18 00:50:35;;;;;;;18.63;4.18;;;;;;;2.70;100.00;103974.59;5020511;28;20033;-75
2022/01/18 00:53:05;;;;;;;12.23;4.25;;;;;;;2.69;100.00;103978.84;5026422;28;20046;-75
2022/01/18 00:55:34;;;;;;;15.80;4.30;;;;;;;2.70;100.00;103969.38;5031497;28;20362;-75
2022/01/18 00:58:00;;;;;;;23.58;4.85;;;;;;;2.73;100.00;103969.69;5025250;28;20021;-75
2022/01/18 01:00:25;;;;;;;24.98;4.63;;;;;;;2.73;100.00;103972.28;5031844;28;20480;-75
2022/01/18 01:02:51;;;;;;;18.42;4.78;;;;;;;2.69;100.00;103971.06;5034607;28;20044;-74
2022/01/18 01:05:16;;;;;;;29.90;5.65;;;;;;;2.73;100.00;103963.53;5037498;28;20083;-75
2022/01/18 01:07:41;;;;;;;33.63;6.38;;;;;;;2.72;100.00;103962.63;5034377;28;20034;-75
2022/01/18 01:10:07;;;;;;;34.28;6.70;;;;;;;2.71;100.00;103966.00;5027288;28;20058;-76
2022/01/18 01:12:32;;;;;;;27.02;5.63;;;;;;;2.72;100.00;103966.94;5034446;28;20091;-74
2022/01/18 01:15:05;;;;;;;15.52;4.55;;;;;;;2.74;100.00;103960.19;5029762;28;20053;-74
2022/01/18 01:17:44;;;;;;;14.07;3.58;;;;;;;2.76;100.00;103956.06;5024760;28;20052;-75
2022/01/18 01:34:21;;;;;;;34.85;5.57;;;;;;;2.70;100.00;103954.69;5031990;28;20040;-75
2022/01/18 01:42:55;;;;;;;9.07;4.05;;;;;;;2.59;100.00;103955.31;5034427;28;20064;-76
2022/01/18 01:45:17;;;;;;;17.20;5.03;;;;;;;2.50;100.00;103954.41;5029240;28;20036;-74
2022/01/18 01:47:46;;;;;;;15.82;4.47;;;;;;;2.43;100.00;103954.53;5015381;28;20080;-74
2022/01/18 01:50:18;;;;;;;19.58;5.50;;;;;;;2.40;100.00;103962.03;5026758;28;20561;-74
2022/01/18 01:52:45;;;;;;;18.75;4.75;;;;;;;2.39;100.00;103955.00;5028368;28;20086;-75
2022/01/18 01:55:11;;;;;;;21.48;5.05;;;;;;;2.39;100.00;103952.38;5019805;28;20021;-76
2022/01/18 01:57:36;;;;;;;20.90;4.18;;;;;;;2.33;100.00;103961.44;5024917;28;20025;-75
2022/01/18 02:00:14;;;;;;;27.92;5.07;;;;;;;2.36;100.00;103966.94;5024966;28;20042;-76
2022/01/18 02:02:40;;;;;;;14.98;5.07;;;;;;;2.27;100.00;103976.38;5017016;28;20034;-75
2022/01/18 02:05:06;;;;;;;14.77;4.95;;;;;;;2.25;100.00;103975.34;5033275;28;20030;-74
2022/01/18 02:07:33;;;;;;;25.08;5.43;;;;;;;2.25;100.00;103962.34;5023993;28;20025;-75
2022/01/18 02:09:58;;;;;;;37.28;5.68;;;;;;;2.29;100.00;103964.47;5032517;28;20507;-75
2022/01/18 02:12:24;;;;;;;35.90;5.38;;;;;;;2.19;100.00;103964.31;5023902;28;20041;-75
2022/01/18 02:14:55;;;;;;;14.60;4.97;;;;;;;2.21;100.00;103962.75;5023994;28;20029;-75
2022/01/18 02:22:50;;;;;;;24.65;5.72;;;;;;;2.08;100.00;103958.03;5026467;28;20465;-75
2022/01/18 02:25:15;;;;;;;17.85;4.25;;;;;;;2.01;100.00;103960.78;5006392;28;20038;-75
2022/01/18 02:27:41;;;;;;;26.17;6.00;;;;;;;2.04;100.00;103960.16;5024699;28;20034;-75
2022/01/18 02:30:07;;;;;;;20.98;5.60;;;;;;;2.00;100.00;103957.22;5032924;28;20033;-75
2022/01/18 02:32:32;;;;;;;13.40;4.60;;;;;;;1.96;100.00;103960.28;5031279;28;20488;-74
2022/01/18 02:34:57;;;;;;;25.50;5.72;;;;;;;1.93;100.00;103962.56;5026941;28;20037;-74
2022/01/18 02:37:23;;;;;;;17.67;8.00;;;;;;;1.94;100.00;103954.03;5025558;28;20115;-74
2022/01/18 02:39:48;;;;;;;20.02;6.43;;;;;;;1.98;100.00;103960.44;5016561;28;20512;-75
2022/01/18 02:42:16;;;;;;;22.00;4.60;;;;;;;2.07;100.00;103965.66;5029323;28;20036;-74
2022/01/18 02:44:43;;;;;;;19.88;6.00;;;;;;;2.02;100.00;103958.31;5029875;28;20017;-74
2022/01/18 02:47:08;;;;;;;26.40;5.50;;;;;;;2.02;100.00;103958.31;5027683;28;20490;-75
2022/01/18 02:49:34;;;;;;;28.85;4.75;;;;;;;1.95;100.00;103954.94;5032039;28;20049;-74
2022/01/18 02:52:00;;;;;;;38.78;5.28;;;;;;;1.93;100.00;103953.88;5025530;28;20112;-74
2022/01/18 02:54:25;;;;;;;35.00;5.93;;;;;;;1.94;100.00;103959.22;5034505;28;20026;-74
2022/01/18 02:56:54;;;;;;;34.47;5.30;;;;;;;1.97;100.00;103959.53;5030252;28;20433;-74
2022/01/18 03:05:08;;;;;;;20.85;4.57;;;;;;;1.92;100.00;103958.13;5023580;28;20048;-75
2022/01/18 03:07:34;;;;;;;16.52;5.47;;;;;;;1.97;100.00;103956.94;5032365;28;20065;-75
2022/01/18 03:09:59;;;;;;;25.40;4.70;;;;;;;1.97;100.00;103959.53;5029866;28;20137;-74
2022/01/18 03:12:25;;;;;;;26.30;5.13;;;;;;;2.02;100.00;103947.94;5023715;28;20548;-74
2022/01/18 03:14:50;;;;;;;12.32;3.95;;;;;;;2.07;100.00;103960.47;5028594;28;20041;-75
2022/01/18 03:17:16;;;;;;;19.42;4.85;;;;;;;2.08;100.00;103960.63;5017913;28;20026;-74
2022/01/18 03:19:41;;;;;;;20.42;3.97;;;;;;;2.09;100.00;103958.94;5020440;28;20104;-75
2022/01/18 03:22:07;;;;;;;6.28;3.17;;;;;;;2.07;100.00;103956.19;5025429;28;20156;-75
2022/01/18 03:30:05;;;;;;;22.98;3.92;;;;;;;2.23;100.00;103957.75;5022950;28;20101;-75
2022/01/18 03:32:30;;;;;;;18.70;3.22;;;;;;;2.16;100.00;103966.59;5029120;28;20030;-75
2022/01/18 03:34:56;;;;;;;24.67;4.13;;;;;;;2.13;100.00;103958.47;5032498;28;20064;-75
2022/01/18 03:37:21;;;;;;;10.95;3.30;;;;;;;2.12;100.00;103959.25;5031209;28;20021;-75
2022/01/18 03:39:46;;;;;;;20.85;3.95;;;;;;;2.11;100.00;103963.53;5020624;28;20054;-75
2022/01/18 03:45:01;;;;;;;12.77;4.30;;;;;;;2.12;100.00;103960.16;5021928;28;20405;-76
2022/01/18 03:47:26;;;;;;;8.02;3.38;;;;;;;2.15;100.00;103964.75;5020604;28;20025;-75
2022/01/18 03:49:51;;;;;;;29.73;3.85;;;;;;;2.15;100.00;103964.75;5025594;28;20037;-76
2022/01/18 03:52:17;;;;;;;10.13;3.55;;;;;;;2.11;100.00;103962.63;5027972;28;20113;-75
2022/01/18 03:54:47;;;;;;;15.05;3.35;;;;;;;2.07;100.00;103961.38;5018321;28;20056;-75
2022/01/18 03:57:12;;;;;;;8.85;2.97;;;;;;;2.02;100.00;103967.78;5015046;28;20029;-75
2022/01/18 03:59:37;;;;;;;29.95;3.80;;;;;;;2.11;100.00;103963.53;5027693;28;20021;-75
2022/01/18 04:02:03;;;;;;;9.75;3.20;;;;;;;2.02;100.00;103967.78;5020807;28;20063;-75
2022/01/18 04:04:28;;;;;;;5.05;2.90;;;;;;;1.98;100.00;103965.63;5024553;28;20061;-76
2022/01/18 04:06:54;;;;;;;21.02;3.00;;;;;;;2.01;100.00;103968.56;5024446;28;20473;-75
2022/01/18 04:09:20;;;;;;;8.80;3.45;;;;;;;1.98;100.00;103963.97;5025673;28;20052;-75
2022/01/18 04:11:46;;;;;;;8.68;2.97;;;;;;;1.96;100.00;103970.66;5020320;28;20065;-76
2022/01/18 04:14:11;;;;;;;12.45;2.78;;;;;;;1.97;100.00;103975.09;5021508;28;20065;-76
2022/01/18 04:16:44;;;;;;;8.55;3.50;;;;;;;2.06;100.00;103982.00;5018520;28;20040;-76
2022/01/18 04:27:21;;;;;;;10.13;2.58;;;;;;;1.99;100.00;103985.66;5026656;28;20444;-76
2022/01/18 04:29:46;;;;;;;8.52;2.92;;;;;;;1.96;100.00;103987.94;5023271;28;20021;-76
2022/01/18 04:32:12;;;;;;;10.27;2.88;;;;;;;1.95;100.00;103980.91;5024422;28;20029;-75
2022/01/18 04:34:38;;;;;;;13.13;2.90;;;;;;;1.95;100.00;103987.00;5018288;28;20029;-75
2022/01/18 04:37:04;;;;;;;6.53;2.50;;;;;;;1.93;100.00;103977.25;5020686;28;20489;-76
2022/01/18 04:39:36;;;;;;;11.85;2.88;;;;;;;1.92;100.00;103986.69;5031144;28;20052;-76
2022/01/18 04:42:02;;;;;;;14.10;2.88;;;;;;;1.98;100.00;103992.53;5030406;28;20506;-75
2022/01/18 04:49:55;;;;;;;8.70;3.58;;;;;;;2.06;100.00;103989.78;5031346;28;20060;-75
2022/01/18 04:52:20;;;;;;;11.70;2.65;;;;;;;2.08;100.00;103993.47;5020024;28;20029;-75
2022/01/18 04:54:56;;;;;;;9.85;2.92;;;;;;;2.08;100.00;103983.09;5022451;28;20040;-76
2022/01/18 04:59:47;;;;;;;13.40;3.10;;;;;;;2.12;100.00;103985.25;5030547;28;20048;-75
2022/01/18 05:02:12;;;;;;;13.02;3.33;;;;;;;2.10;100.00;103989.34;5028915;28;20053;-75
2022/01/18 05:04:38;;;;;;;12.10;2.97;;;;;;;2.12;100.00;103995.63;5031195;28;20036;-75
2022/01/18 05:07:07;;;;;;;14.15;3.00;;;;;;;2.14;100.00;103994.09;5030196;28;20021;-75
2022/01/18 05:09:33;;;;;;;13.75;2.67;;;;;;;2.15;100.00;103990.75;5018394;28;20466;-75
2022/01/18 05:12:06;;;;;;;8.10;2.85;;;;;;;2.16;100.00;103990.88;5021746;28;20088;-75
2022/01/18 05:14:34;;;;;;;18.13;3.40;;;;;;;2.19;100.00;103999.00;5023228;28;20022;-75
2022/01/18 05:19:42;;;;;;;12.10;2.78;;;;;;;2.19;100.00;103992.88;5013410;28;20033;-76
2022/01/18 05:24:52;;;;;;;18.65;3.70;;;;;;;2.12;100.00;103982.66;5021327;28;20045;-75
2022/01/18 05:27:17;;;;;;;36.33;4.20;;;;;;;2.11;100.00;103983.41;5026315;28;20037;-75
2022/01/18 05:29:43;;;;;;;21.55;3.95;;;;;;;2.14;100.00;103982.03;5030281;28;20134;-75
2022/01/18 05:32:08;;;;;;;26.80;3.15;;;;;;;2.12;100.00;103983.53;5018947;28;20060;-76
2022/01/18 05:34:34;;;;;;;36.28;3.38;;;;;;;2.08;100.00;103978.81;5026577;28;20041;-75
2022/01/18 05:36:59;;;;;;;12.20;3.42;;;;;;;2.05;100.00;103974.97;5035772;28;20080;-75
2022/01/18 05:39:24;;;;;;;51.38;4.28;;;;;;;2.02;100.00;103983.34;5021921;28;20029;-75
2022/01/18 05:41:50;;;;;;;28.73;3.20;;;;;;;1.99;100.00;103984.00;5018517;28;20037;-75
2022/01/18 05:44:15;;;;;;;21.48;3.55;;;;;;;2.00;100.00;103982.31;5016785;28;20033;-75
2022/01/18 05:46:41;;;;;;;7.53;3.72;;;;;;;2.00;100.00;103990.09;5018479;28;20112;-74
2022/01/18 05:49:06;;;;;;;10.43;3.67;;;;;;;1.98;100.00;103987.34;5025877;28;20038;-75
2022/01/18 05:51:33;;;;;;;21.13;4.45;;;;;;;2.01;100.00;103985.06;5016645;28;20374;-75
2022/01/18 05:53:58;;;;;;;20.00;4.28;;;;;;;1.97;100.00;103982.00;5024147;28;20026;-75
2022/01/18 05:56:24;;;;;;;27.75;4.53;;;;;;;1.96;100.00;103983.66;5029740;28;20044;-74
2022/01/18 05:58:50;;;;;;;32.10;5.03;;;;;;;1.99;100.00;103988.25;5026402;28;20022;-75
2022/01/18 06:01:27;;;;;;;8.18;4.10;;;;;;;1.95;100.00;103976.63;5021129;28;20059;-75
2022/01/18 06:09:07;;;;;;;23.33;4.43;;;;;;;1.97;100.00;103985.50;5034582;28;20095;-74
2022/01/18 06:11:33;;;;;;;19.58;4.43;;;;;;;1.90;100.00;103982.09;5022200;28;20030;-74
2022/01/18 06:13:59;;;;;;;13.50;4.50;;;;;;;1.84;100.00;103969.41;5021771;28;20108;-75
2022/01/18 06:16:25;;;;;;;20.40;4.30;;;;;;;1.94;100.00;103976.47;5023024;28;20536;-76
2022/01/18 06:18:51;;;;;;;14.05;4.55;;;;;;;1.87;100.00;103977.50;5021892;28;20022;-75
2022/01/18 06:21:16;;;;;;;26.65;4.80;;;;;;;1.81;100.00;103974.31;5028277;28;20354;-75
2022/01/18 06:23:41;;;;;;;17.98;4.90;;;;;;;1.77;100.00;103969.56;5028160;28;20592;-75
2022/01/18 06:26:07;;;;;;;18.08;4.68;;;;;;;1.79;100.00;103970.63;5024019;28;20089;-76
2022/01/18 06:28:32;;;;;;;37.17;4.95;;;;;;;1.75;100.00;103984.97;5030772;28;20164;-76
2022/01/18 06:30:58;;;;;;;17.70;4.95;;;;;;;1.71;100.00;103980.22;5028457;28;20033;-75
2022/01/18 06:33:24;;;;;;;47.90;5.35;;;;;;;1.76;100.00;103985.88;5028471;28;20029;-75
2022/01/18 06:35:50;;;;;;;29.02;4.50;;;;;;;1.69;100.00;103979.13;5023796;28;20029;-74
2022/01/18 06:38:15;;;;;;;19.70;4.50;;;;;;;1.64;100.00;103978.69;5012979;28;20053;-72
2022/01/18 06:40:41;;;;;;;38.40;5.85;;;;;;;1.63;100.00;103973.34;5019221;28;20154;-74
2022/01/18 06:43:07;;;;;;;25.02;5.47;;;;;;;1.64;100.00;103983.88;5017986;28;20493;-71
2022/01/18 06:45:32;;;;;;;16.80;5.72;;;;;;;1.60;100.00;103981.72;5027579;28;20123;-71
2022/01/18 06:47:58;;;;;;;41.78;6.55;;;;;;;1.58;100.00;103982.31;5028341;28;20029;-71
2022/01/18 06:50:23;;;;;;;23.02;6.47;;;;;;;1.63;100.00;103982.03;5024714;28;20040;-72
2022/01/18 06:52:48;;;;;;;28.10;5.97;;;;;;;1.64;100.00;103983.88;5025281;28;20470;-73
2022/01/18 06:55:14;;;;;;;13.68;5.95;;;;;;;1.61;100.00;103982.63;5023999;28;20022;-72
2022/01/18 06:57:39;;;;;;;17.23;5.60;;;;;;;1.59;100.00;103986.75;5027689;28;20049;-72
2022/01/18 07:00:07;;;;;;;22.40;6.28;;;;;;;1.56;100.00;103984.75;5019929;28;20532;-72
2022/01/18 07:02:32;;;;;;;12.48;6.05;;;;;;;1.55;100.00;103988.09;5020522;28;20045;-72
2022/01/18 07:04:57;;;;;;;16.50;7.30;;;;;;;1.56;100.00;103989.94;5027477;28;20017;-73
2022/01/18 07:07:23;;;;;;;21.38;6.50;;;;;;;1.57;100.00;103983.97;5023450;28;20040;-73
2022/01/18 07:09:49;;;;;;;36.45;6.18;;;;;;;1.56;100.00;103986.41;5020320;28;20071;-72
2022/01/18 07:12:15;;;;;;;54.90;6.15;;;;;;;1.54;100.00;103993.13;5029635;28;20424;-71
2022/01/18 07:14:41;;;;;;;55.97;6.00;;;;;;;1.55;100.00;103990.69;5025391;28;20030;-72
2022/01/18 07:17:06;;;;;;;16.25;5.30;;;;;;;1.57;100.00;103988.25;5030269;28;20092;-72
2022/01/18 07:19:32;;;;;;;49.80;7.18;;;;;;;1.57;100.00;103994.34;5020002;28;20125;-72
2022/01/18 07:22:01;;;;;;;84.28;7.72;;;;;;;1.53;100.00;103999.97;5034115;28;20033;-72
2022/01/18 07:24:46;;;;;;;42.83;6.28;;;;;;;1.54;100.00;103994.03;5022767;28;20034;-72
2022/01/18 07:27:13;;;;;;;16.30;5.28;;;;;;;1.56;100.00;103996.78;5025581;28;20033;-72
2022/01/18 07:29:43;;;;;;;10.95;4.90;;;;;;;1.54;100.00;103996.63;5033707;28;20462;-72
2022/01/18 07:32:11;;;;;;;19.98;5.05;;;;;;;1.55;100.00;103994.94;5021898;28;20069;-72
2022/01/18 07:34:41;;;;;;;15.30;5.45;;;;;;;1.55;100.00;103987.16;5020844;28;20393;-71
2022/01/18 07:37:07;;;;;;;36.65;5.60;;;;;;;1.57;100.00;103996.94;5027070;28;20023;-74
2022/01/18 07:39:32;;;;;;;22.83;5.50;;;;;;;1.59;100.00;104005.81;5019011;28;20021;-71
2022/01/18 07:41:58;;;;;;;16.67;4.88;;;;;;;1.61;100.00;104004.28;5020481;28;20097;-72
2022/01/18 07:44:23;;;;;;;27.73;5.47;;;;;;;1.63;100.00;104007.97;5021005;28;20029;-71
2022/01/18 07:46:48;;;;;;;15.20;4.68;;;;;;;1.69;100.00;104007.69;5015046;28;20037;-71
2022/01/18 07:49:14;;;;;;;26.23;4.95;;;;;;;1.69;100.00;104005.09;5023923;28;20108;-72
2022/01/18 07:51:39;;;;;;;13.65;4.70;;;;;;;1.71;100.00;104010.44;5014490;28;20022;-72
2022/01/18 07:54:04;;;;;;;20.70;5.15;;;;;;;1.75;100.00;104012.59;5014863;28;20034;-72
2022/01/18 07:56:30;;;;;;;25.00;5.38;;;;;;;1.78;100.00;104010.34;5013321;28;20485;-71
2022/01/18 07:58:55;;;;;;;13.77;5.70;;;;;;;1.80;100.00;104014.00;5015752;28;20026;-75
2022/01/18 08:01:21;;;;;;;22.13;3.85;;;;;;;1.84;100.00;104016.16;5014733;28;20385;-72
2022/01/18 08:03:46;;;;;;;11.82;3.95;;;;;;;1.90;100.00;104019.41;5031773;28;20128;-72
2022/01/18 08:06:11;;;;;;;21.30;4.45;;;;;;;1.92;100.00;104017.88;5033812;28;20100;-71
2022/01/18 08:08:39;;;;;;;14.60;5.03;;;;;;;1.97;100.00;104024.44;5027747;28;20030;-72
2022/01/18 08:11:05;;;;;;;14.82;5.50;;;;;;;2.01;100.00;104012.72;5025769;28;20029;-71
2022/01/18 08:13:37;;;;;;;14.45;5.30;;;;;;;2.07;100.00;104015.91;5020540;28;20367;-73
2022/01/18 08:18:48;;;;;;;14.77;4.35;;;;;;;2.19;100.00;104019.78;5025445;28;20040;-72
2022/01/18 08:21:13;;;;;;;15.07;5.15;;;;;;;2.26;100.00;104013.53;5024885;28;20377;-72
2022/01/18 08:23:38;;;;;;;7.82;3.95;;;;;;;2.33;100.00;104022.84;5029777;28;20099;-72
2022/01/18 08:26:03;;;;;;;12.30;4.40;;;;;;;2.40;100.00;104016.59;5031651;28;20030;-75
2022/01/18 08:28:29;;;;;;;10.20;4.75;;;;;;;2.45;100.00;104020.59;5018011;28;20025;-74
2022/01/18 08:30:54;;;;;;;11.45;4.47;;;;;;;2.52;100.00;104010.03;5030444;28;20111;-76
2022/01/18 08:33:19;;;;;;;11.80;4.80;;;;;;;2.57;100.00;104013.13;5033239;28;20068;-76
2022/01/18 08:35:45;;;;;;;13.77;4.95;;;;;;;2.64;100.00;104031.16;5031837;28;20478;-76
2022/01/18 08:38:10;;;;;;;18.00;5.30;;;;;;;2.69;100.00;104020.44;5021864;28;20030;-75
2022/01/18 08:40:35;;;;;;;26.63;6.30;;;;;;;2.75;100.00;104014.94;5014672;28;20045;-75
2022/01/18 08:43:01;;;;;;;15.50;7.00;;;;;;;2.82;100.00;104021.69;5016552;28;20037;-77
2022/01/18 08:45:26;;;;;;;29.70;7.43;;;;;;;2.89;100.00;104029.34;5013318;28;20030;-74
2022/01/18 08:47:52;;;;;;;32.35;9.38;;;;;;;2.95;100.00;104034.22;5020818;28;20030;-74
2022/01/18 08:50:19;;;;;;;59.83;9.82;;;;;;;2.94;100.00;104033.28;5031238;28;21086;-74
2022/01/18 08:52:44;;;;;;;55.33;9.57;;;;;;;3.02;100.00;104034.97;5027744;28;20082;-75
2022/01/18 08:55:10;;;;;;;26.60;9.18;;;;;;;3.08;100.00;104036.34;5023520;28;20029;-76
2022/01/18 08:57:35;;;;;;;24.70;7.50;;;;;;;3.12;100.00;104046.28;5030432;28;20117;-76
2022/01/18 09:00:01;;;;;;;35.13;8.23;;;;;;;3.04;100.00;104042.94;5024134;28;20037;-76
2022/01/18 09:02:26;;;;;;;27.10;8.73;;;;;;;3.09;100.00;104038.19;5016541;28;20485;-76
2022/01/18 09:04:51;;;;;;;43.15;8.77;;;;;;;3.11;100.00;104039.28;5025695;28;20126;-76
2022/01/18 09:07:19;;;;;;;28.80;9.65;;;;;;;3.14;100.00;104037.88;5017152;28;20030;-76
2022/01/18 09:09:48;;;;;;;40.45;9.70;;;;;;;3.09;100.00;104038.19;5029461;28;20477;-75
2022/01/18 09:12:17;;;;;;;43.72;9.82;;;;;;;3.06;100.00;104043.09;5031370;28;20086;-73
2022/01/18 09:14:42;;;;;;;77.32;12.57;;;;;;;3.07;100.00;104039.75;5032843;28;20029;-72
2022/01/18 09:17:08;;;;;;;39.90;10.55;;;;;;;3.12;100.00;104034.22;5032015;28;20436;-71
2022/01/18 09:19:33;;;;;;;76.45;14.07;;;;;;;3.15;100.00;104033.59;5030870;28;20509;-71
2022/01/18 09:22:00;;;;;;;64.85;11.20;;;;;;;3.20;100.00;104035.88;5024663;28;20036;-72
2022/01/18 09:24:25;;;;;;;34.67;10.18;;;;;;;3.27;100.00;104040.00;5024812;28;20462;-72
2022/01/18 09:26:51;;;;;;;26.52;11.15;;;;;;;3.32;100.00;104041.38;5031610;28;20036;-71
2022/01/18 09:29:16;;;;;;;48.50;11.55;;;;;;;3.37;100.00;104045.34;5028468;28;20029;-71
2022/01/18 09:31:42;;;;;;;34.28;11.07;;;;;;;3.41;100.00;104045.66;5023936;28;20030;-71
2022/01/18 09:34:07;;;;;;;31.05;11.00;;;;;;;3.43;100.00;104041.50;5022566;28;20021;-73
2022/01/18 09:36:33;;;;;;;43.30;8.65;;;;;;;3.44;100.00;104032.94;5034131;28;20091;-73
2022/01/18 09:38:59;;;;;;;51.05;9.85;;;;;;;3.41;100.00;104040.44;5028835;28;20049;-73
2022/01/18 09:41:31;;;;;;;33.00;9.80;;;;;;;3.45;100.00;104037.38;5028965;28;20353;-71
2022/01/18 09:43:56;;;;;;;34.80;10.75;;;;;;;3.48;100.00;104040.28;5023195;28;20037;-72
2022/01/18 09:46:26;;;;;;;60.13;10.98;;;;;;;3.46;100.00;104041.78;5023401;28;20029;-71
2022/01/18 09:48:53;;;;;;;33.20;10.20;;;;;;;3.49;100.00;104036.91;5027567;28;20038;-71
2022/01/18 09:51:19;;;;;;;72.70;12.43;;;;;;;3.53;100.00;104036.44;5030706;28;20085;-72
2022/01/18 09:53:44;;;;;;;26.23;10.40;;;;;;;3.57;100.00;104035.97;5026462;28;20120;-71
2022/01/18 09:56:09;;;;;;;42.97;12.27;;;;;;;3.59;100.00;104038.69;5028653;28;20482;-71
2022/01/18 09:58:35;;;;;;;24.77;11.23;;;;;;;3.64;100.00;104048.78;5033596;28;20107;-71
2022/01/18 10:01:00;;;;;;;54.42;12.65;;;;;;;3.61;100.00;104043.28;5035709;28;20056;-71
2022/01/18 10:03:28;;;;;;;63.78;12.15;;;;;;;3.70;100.00;104049.41;5028057;28;20029;-72
2022/01/18 10:05:55;;;;;;;58.08;11.85;;;;;;;3.75;100.00;104052.44;5031380;28;20048;-72
2022/01/18 10:08:21;;;;;;;40.47;11.45;;;;;;;3.72;100.00;104047.84;5027519;28;20052;-72
2022/01/18 10:10:49;;;;;;;94.68;15.10;;;;;;;3.76;100.00;104038.66;5030281;28;20029;-72
2022/01/18 10:13:41;;;;;;;46.45;13.45;;;;;;;3.82;100.00;104038.31;5034627;28;20025;-72
2022/01/18 10:16:12;;;;;;;62.58;14.50;;;;;;;3.83;100.00;104034.94;5029659;28;20045;-72
2022/01/18 10:18:47;;;;;;;65.78;13.70;;;;;;;3.81;100.00;104036.47;5035273;28;20033;-72
2022/01/18 10:21:23;;;;;;;54.05;16.33;;;;;;;3.83;100.00;104040.16;5025686;28;20021;-72
2022/01/18 10:23:49;;;;;;;106.43;19.13;;;;;;;3.82;100.00;104040.91;5026477;28;20036;-72
2022/01/18 10:26:25;;;;;;;104.57;16.90;;;;;;;3.93;100.00;104040.25;5034823;28;20029;-72
2022/01/18 10:29:03;;;;;;;152.40;18.30;;;;;;;3.98;100.00;104039.00;5015850;28;20131;-71
2022/01/18 10:31:36;;;;;;;96.95;18.05;;;;;;;4.03;100.00;104040.38;5028880;28;20034;-71
2022/01/18 10:34:13;;;;;;;65.38;16.35;;;;;;;4.04;100.00;104041.25;5032238;28;20465;-72
2022/01/18 10:36:52;;;;;;;74.22;16.88;;;;;;;4.13;100.00;104042.16;5032444;28;20037;-73
2022/01/18 10:39:24;;;;;;;147.65;20.00;;;;;;;4.10;100.00;104044.47;5034015;28;20404;-71
2022/01/18 10:41:50;;;;;;;88.35;17.33;;;;;;;4.12;100.00;104034.19;5019147;28;20426;-71
2022/01/18 10:44:17;;;;;;;57.53;15.90;;;;;;;4.15;100.00;104034.47;5015225;28;20030;-72
2022/01/18 10:46:47;;;;;;;124.88;22.05;;;;;;;4.14;100.00;104040.47;5023762;28;20433;-71
2022/01/18 10:49:31;;;;;;;104.18;19.15;;;;;;;4.17;100.00;104036.44;5029989;28;20021;-72
2022/01/18 10:51:58;;;;;;;68.78;19.52;;;;;;;4.17;100.00;104039.06;5026767;28;20211;-71
2022/01/18 10:54:34;;;;;;;76.53;18.85;;;;;;;4.25;100.00;104038.88;5026641;28;20060;-71
2022/01/18 10:57:02;;;;;;;74.45;21.17;;;;;;;4.28;100.00;104047.88;5029669;28;20038;-71
2022/01/18 10:59:28;;;;;;;72.55;20.70;;;;;;;4.31;100.00;104042.94;5024558;28;20087;-73
2022/01/18 11:02:26;;;;;;;59.08;19.52;;;;;;;4.25;100.00;104037.19;5020886;28;20101;-71
2022/01/18 11:04:56;;;;;;;87.22;19.73;;;;;;;4.29;100.00;104033.19;5006623;28;20094;-71
2022/01/18 11:07:27;;;;;;;67.13;18.80;;;;;;;4.35;100.00;104031.13;5032525;28;20021;-71
2022/01/18 11:09:53;;;;;;;85.88;17.98;;;;;;;4.21;100.00;104024.63;5017843;28;20036;-71
2022/01/18 11:12:20;;;;;;;82.25;16.35;;;;;;;4.26;100.00;104023.38;5024906;28;20021;-70
2022/01/18 11:14:51;;;;;;;59.10;14.77;;;;;;;4.28;100.00;104021.81;5023900;28;20087;-72
2022/01/18 11:17:23;;;;;;;48.58;12.82;;;;;;;4.26;100.00;104020.78;5028302;28;20052;-71
2022/01/18 11:19:50;;;;;;;43.17;13.68;;;;;;;4.27;100.00;104022.59;5023696;28;20293;-70
2022/01/18 11:22:17;;;;;;;72.40;15.70;;;;;;;4.30;100.00;104025.50;5036846;28;20049;-71
2022/01/18 11:24:44;;;;;;;68.72;14.70;;;;;;;4.32;100.00;104018.72;5024784;28;20488;-70
2022/01/18 11:27:13;;;;;;;115.93;16.25;;;;;;;4.40;100.00;104022.06;5030603;28;20379;-71
2022/01/18 11:29:44;;;;;;;88.55;16.63;;;;;;;4.43;100.00;104021.44;5023857;28;20021;-70
2022/01/18 11:32:10;;;;;;;54.47;15.93;;;;;;;4.47;100.00;104014.03;5033888;28;20099;-72
2022/01/18 11:35:03;;;;;;;89.05;18.23;;;;;;;4.48;100.00;104005.44;5021567;28;20018;-70
2022/01/18 11:37:49;;;;;;;77.45;17.95;;;;;;;4.57;100.00;104015.78;5021780;28;20043;-70
2022/01/18 11:40:17;;;;;;;58.17;17.35;;;;;;;4.48;100.00;104014.97;5034426;28;20072;-71
2022/01/18 11:42:50;;;;;;;54.40;18.85;;;;;;;4.54;100.00;104012.91;5033150;28;20773;-71
2022/01/18 11:45:24;;;;;;;118.90;22.15;;;;;;;4.62;100.00;104011.91;5032014;28;20532;-70
2022/01/18 11:48:16;;;;;;;77.15;21.17;;;;;;;4.71;100.00;104004.94;5013257;28;20091;-71
2022/01/18 11:50:45;;;;;;;96.40;21.63;;;;;;;4.70;100.00;104003.09;5027988;28;20120;-72
2022/01/18 11:53:24;;;;;;;81.47;23.55;;;;;;;4.78;100.00;104005.50;5034461;28;20114;-72
2022/01/18 11:55:52;;;;;;;68.70;22.50;;;;;;;4.80;100.00;104001.34;5034616;28;20369;-72
2022/01/18 11:58:18;;;;;;;79.18;21.08;;;;;;;4.80;100.00;104009.16;5028950;28;20033;-72
2022/01/18 12:00:51;;;;;;;88.10;23.13;;;;;;;4.85;100.00;104002.69;5030410;28;20528;-72
2022/01/18 12:03:19;;;;;;;124.22;26.45;;;;;;;4.86;100.00;103997.59;5030392;28;20047;-73
2022/01/18 12:05:45;;;;;;;80.32;24.83;;;;;;;4.86;100.00;103994.97;5023726;28;20088;-73
2022/01/18 12:08:41;;;;;;;75.82;24.23;;;;;;;4.87;100.00;103998.50;5027350;28;20486;-72
2022/01/18 12:11:26;;;;;;;101.28;25.83;;;;;;;4.82;100.00;103989.34;5015523;28;20030;-73
2022/01/18 12:13:58;;;;;;;93.15;24.08;;;;;;;4.68;100.00;103985.47;5027981;28;20056;-73
2022/01/18 12:16:29;;;;;;;114.68;27.45;;;;;;;4.68;100.00;103986.41;5015415;28;20044;-72
2022/01/18 12:19:04;;;;;;;94.63;26.40;;;;;;;4.75;100.00;103989.56;5019844;28;20018;-73
2022/01/18 12:21:32;;;;;;;106.88;26.38;;;;;;;4.79;100.00;103990.00;5027916;28;20030;-72
2022/01/18 12:24:19;;;;;;;83.20;24.23;;;;;;;4.73;100.00;103987.75;5021832;28;20071;-72
2022/01/18 12:26:49;;;;;;;83.28;23.77;;;;;;;4.75;100.00;103986.94;5020250;28;20034;-71
2022/01/18 12:34:33;;;;;;;108.38;23.27;;;;;;;4.76;100.00;103980.97;5021454;28;20038;-72
2022/01/18 12:37:14;;;;;;;102.35;22.45;;;;;;;4.79;100.00;103976.00;5018808;28;20029;-74
2022/01/18 12:39:59;;;;;;;92.13;22.02;;;;;;;4.85;100.00;103979.19;5017606;28;20073;-73
2022/01/18 12:45:37;;;;;;;82.32;21.77;;;;;;;4.92;100.00;103976.34;5016275;28;20032;-73